Time;durP1;ratioP1;P1;durP2;ratioP2;P2;SDS_P1;SDS_P2;PMS_P1;PMS_P2;Temp;Humidity;BMP_temperature;BMP_pressure;BME280_temperature;BME280_humidity;BME280_pressure;Samples;Min_cycle;Max_cycle;Signal;HPM_P1;HPM_P2
2023/03/23 00:01:32;;;;;;;2.70;1.10;;;12.80;99.90;;;;;;4139081;28;20229;-75
2023/03/23 00:03:34;;;;;;;4.17;1.10;;;12.80;99.90;;;;;;4141250;28;20707;-75
2023/03/23 00:05:36;;;;;;;2.23;1.53;;;12.80;99.90;;;;;;4138535;28;20296;-74
2023/03/23 00:07:45;;;;;;;2.00;1.30;;;12.80;99.90;;;;;;4155955;28;20275;-74
2023/03/23 00:09:47;;;;;;;2.70;1.30;;;12.70;99.90;;;;;;4154618;28;20236;-75
2023/03/23 00:11:49;;;;;;;4.30;1.40;;;12.70;99.90;;;;;;4155045;28;20666;-74
2023/03/23 00:13:52;;;;;;;2.43;1.23;;;12.80;99.90;;;;;;4136163;28;20200;-74
2023/03/23 00:15:54;;;;;;;2.63;1.60;;;12.70;99.90;;;;;;4141936;28;20227;-74
2023/03/23 00:18:02;;;;;;;1.63;1.10;;;12.70;99.90;;;;;;4140949;28;20633;-74
2023/03/23 00:20:07;;;;;;;1.77;1.00;;;12.70;99.90;;;;;;4144458;28;20209;-75
2023/03/23 00:22:09;;;;;;;2.27;1.00;;;12.70;99.90;;;;;;4143521;28;20232;-75
2023/03/23 00:24:12;;;;;;;2.83;1.40;;;12.70;99.90;;;;;;4143762;28;20583;-74
2023/03/23 00:26:14;;;;;;;1.70;1.07;;;12.70;99.90;;;;;;4139221;28;20704;-75
2023/03/23 00:28:17;;;;;;;1.17;1.00;;;12.60;99.90;;;;;;4140507;28;20750;-75
2023/03/23 00:30:19;;;;;;;1.20;1.00;;;12.60;99.90;;;;;;4138741;28;20709;-75
2023/03/23 00:32:26;;;;;;;1.40;1.00;;;12.60;99.90;;;;;;4139565;28;20280;-75
2023/03/23 00:34:33;;;;;;;2.30;1.20;;;12.60;99.90;;;;;;4137941;28;20306;-74
2023/03/23 00:36:42;;;;;;;1.17;0.90;;;12.50;99.90;;;;;;4152993;28;20236;-74
2023/03/23 00:38:46;;;;;;;2.13;1.17;;;12.50;99.90;;;;;;4139713;28;20312;-75
2023/03/23 00:40:49;;;;;;;2.23;1.10;;;12.50;99.90;;;;;;4141362;28;20204;-75
2023/03/23 00:42:51;;;;;;;1.00;0.90;;;12.50;99.90;;;;;;4137928;28;20229;-74
2023/03/23 00:44:59;;;;;;;3.03;1.23;;;12.50;99.90;;;;;;4141912;28;20701;-75
2023/03/23 00:47:04;;;;;;;2.50;1.30;;;12.50;99.90;;;;;;4138739;28;20294;-75
2023/03/23 00:49:06;;;;;;;4.97;1.43;;;12.40;99.90;;;;;;4140782;28;20215;-74
2023/03/23 00:51:12;;;;;;;2.10;1.00;;;12.50;99.90;;;;;;4138886;28;20236;-75
2023/03/23 00:53:14;;;;;;;1.63;1.00;;;12.50;99.90;;;;;;4141467;28;20294;-75
2023/03/23 00:55:16;;;;;;;1.73;1.20;;;12.50;99.90;;;;;;4143484;28;20212;-75
2023/03/23 00:57:18;;;;;;;2.73;1.37;;;12.40;99.90;;;;;;4139953;28;20240;-75
2023/03/23 00:59:20;;;;;;;2.27;1.20;;;12.50;99.90;;;;;;4139565;28;20296;-75
2023/03/23 01:01:22;;;;;;;2.80;1.47;;;12.50;99.90;;;;;;4138343;28;20243;-75
2023/03/23 01:03:25;;;;;;;1.63;1.10;;;12.50;99.90;;;;;;4137240;28;20209;-75
2023/03/23 01:05:31;;;;;;;2.30;1.03;;;12.50;99.90;;;;;;4137481;28;20882;-75
2023/03/23 01:07:35;;;;;;;1.73;1.00;;;12.50;99.90;;;;;;4137422;28;20648;-75
2023/03/23 01:09:39;;;;;;;2.07;1.27;;;12.40;99.90;;;;;;4142672;28;20254;-74
2023/03/23 01:11:41;;;;;;;1.47;1.00;;;12.40;99.90;;;;;;4138356;28;20301;-75
2023/03/23 01:13:44;;;;;;;1.37;1.10;;;12.40;99.90;;;;;;4134556;28;20286;-74
2023/03/23 01:15:47;;;;;;;2.80;1.20;;;12.40;99.90;;;;;;4137533;28;20238;-75
2023/03/23 01:17:49;;;;;;;2.30;1.17;;;12.40;99.90;;;;;;4136290;28;20225;-75
2023/03/23 01:19:50;;;;;;;2.83;1.10;;;12.40;99.90;;;;;;4151891;28;20208;-75
2023/03/23 01:21:52;;;;;;;1.40;1.10;;;12.40;99.90;;;;;;4135750;28;20224;-74
2023/03/23 01:23:56;;;;;;;2.30;0.90;;;12.40;99.90;;;;;;4143190;28;20666;-74
2023/03/23 01:26:00;;;;;;;4.83;1.30;;;12.40;99.90;;;;;;4154262;28;20246;-75
2023/03/23 01:28:02;;;;;;;3.87;1.20;;;12.30;99.90;;;;;;4137057;28;20224;-74
2023/03/23 01:30:05;;;;;;;2.77;1.20;;;12.30;99.90;;;;;;4136276;28;20236;-74
2023/03/23 01:32:07;;;;;;;2.10;1.07;;;12.30;99.90;;;;;;4135238;28;20253;-74
2023/03/23 01:34:10;;;;;;;1.27;1.03;;;12.30;99.90;;;;;;4140998;28;20272;-75
2023/03/23 01:36:17;;;;;;;1.97;0.97;;;12.30;99.90;;;;;;4138628;28;20210;-74
2023/03/23 01:38:19;;;;;;;1.03;0.83;;;12.30;99.90;;;;;;4142123;28;20212;-74
2023/03/23 01:40:22;;;;;;;3.27;1.20;;;12.20;99.90;;;;;;4134246;28;20247;-74
2023/03/23 01:42:24;;;;;;;3.27;1.00;;;12.20;99.90;;;;;;4141986;28;20229;-74
2023/03/23 01:45:15;;;;;;;1.47;1.00;;;12.20;99.90;;;;;;4137350;28;20212;-74
2023/03/23 01:47:20;;;;;;;1.60;1.00;;;12.20;99.90;;;;;;4104331;28;20332;-74
2023/03/23 01:49:28;;;;;;;2.50;1.20;;;12.30;99.90;;;;;;4121910;28;20228;-75
2023/03/23 01:51:30;;;;;;;1.43;0.80;;;12.30;99.90;;;;;;4139000;28;20666;-75
2023/03/23 01:53:38;;;;;;;0.97;0.73;;;12.30;99.90;;;;;;4137460;28;20217;-74
2023/03/23 01:55:44;;;;;;;1.47;0.90;;;12.30;99.90;;;;;;4138590;28;20199;-75
2023/03/23 01:57:46;;;;;;;3.13;0.93;;;12.30;99.90;;;;;;4139064;28;20212;-75
2023/03/23 01:59:54;;;;;;;1.50;0.93;;;12.30;99.90;;;;;;4137571;28;20235;-75
2023/03/23 02:01:57;;;;;;;1.27;0.83;;;12.30;99.90;;;;;;4134966;28;20286;-74
2023/03/23 02:04:03;;;;;;;1.70;1.00;;;12.30;99.90;;;;;;4140458;28;20207;-74
2023/03/23 02:06:06;;;;;;;1.57;1.07;;;12.30;99.90;;;;;;4137817;28;20279;-74
2023/03/23 02:08:13;;;;;;;1.80;1.00;;;12.30;99.90;;;;;;4137972;28;20677;-74
2023/03/23 02:10:18;;;;;;;1.57;0.90;;;12.30;99.90;;;;;;4138389;28;20226;-74
2023/03/23 02:12:21;;;;;;;1.43;1.10;;;12.20;99.90;;;;;;4136276;28;20329;-74
2023/03/23 02:14:25;;;;;;;2.40;1.00;;;12.20;99.90;;;;;;4142018;28;20752;-74
2023/03/23 02:16:35;;;;;;;1.20;0.93;;;12.20;99.90;;;;;;4132744;28;20212;-74
2023/03/23 02:18:48;;;;;;;1.50;1.10;;;12.20;99.90;;;;;;4135403;28;20231;-74
2023/03/23 02:21:15;;;;;;;2.17;0.97;;;12.20;99.90;;;;;;4138898;28;20199;-74
2023/03/23 02:23:46;;;;;;;1.53;1.00;;;12.20;99.90;;;;;;4138316;28;20655;-74
2023/03/23 02:26:12;;;;;;;2.67;0.80;;;12.20;99.90;;;;;;4132632;28;20251;-73
2023/03/23 02:28:42;;;;;;;2.70;1.23;;;12.20;99.90;;;;;;4136229;28;20323;-74
2023/03/23 02:31:02;;;;;;;1.77;1.00;;;12.30;99.90;;;;;;4135602;28;20218;-74
2023/03/23 02:33:30;;;;;;;2.20;1.00;;;12.30;99.90;;;;;;4137193;28;20242;-74
2023/03/23 02:35:36;;;;;;;2.63;1.30;;;12.30;99.90;;;;;;4133048;28;20214;-74
2023/03/23 02:37:46;;;;;;;2.43;1.00;;;12.30;99.90;;;;;;4134327;28;20232;-74
2023/03/23 02:39:52;;;;;;;2.03;0.87;;;12.40;99.90;;;;;;4137076;28;20662;-74
2023/03/23 02:41:59;;;;;;;1.93;0.90;;;12.40;99.90;;;;;;4138508;28;20240;-74
2023/03/23 02:44:03;;;;;;;1.77;1.17;;;12.40;99.90;;;;;;4137603;28;20625;-74
2023/03/23 02:46:08;;;;;;;4.90;1.30;;;12.40;99.90;;;;;;4132219;28;20701;-74
2023/03/23 02:48:12;;;;;;;2.23;0.90;;;12.40;99.90;;;;;;4134679;28;20327;-74
2023/03/23 02:50:20;;;;;;;6.23;1.10;;;12.40;99.90;;;;;;4137581;28;20215;-74
2023/03/23 02:52:25;;;;;;;1.33;0.83;;;12.50;99.90;;;;;;4138267;28;20639;-74
2023/03/23 02:54:29;;;;;;;4.00;1.20;;;12.50;99.90;;;;;;4140302;28;20296;-74
2023/03/23 02:56:32;;;;;;;1.93;0.90;;;12.50;99.90;;;;;;4134876;28;20230;-74
2023/03/23 02:58:35;;;;;;;5.27;1.10;;;12.60;99.90;;;;;;4139180;28;20985;-74
2023/03/23 03:00:39;;;;;;;1.43;0.90;;;12.60;99.90;;;;;;4139074;28;20239;-74
2023/03/23 03:02:44;;;;;;;1.80;1.10;;;12.60;99.90;;;;;;4143040;28;20247;-74
2023/03/23 03:04:55;;;;;;;1.10;0.90;;;12.70;99.90;;;;;;4140173;28;20236;-74
2023/03/23 03:07:17;;;;;;;3.37;1.10;;;12.70;99.90;;;;;;4140442;28;20277;-74
2023/03/23 03:09:29;;;;;;;3.03;1.03;;;12.70;99.90;;;;;;4135523;28;20299;-74
2023/03/23 03:11:34;;;;;;;3.77;1.07;;;12.70;99.90;;;;;;4137237;28;20263;-74
2023/03/23 03:13:45;;;;;;;3.30;1.17;;;12.70;99.90;;;;;;4133371;28;20953;-74
2023/03/23 03:15:55;;;;;;;7.80;1.00;;;12.70;99.90;;;;;;4140162;28;20213;-74
2023/03/23 03:18:06;;;;;;;4.50;1.10;;;12.70;99.90;;;;;;4138490;28;20207;-74
2023/03/23 03:20:11;;;;;;;1.77;0.80;;;12.80;99.90;;;;;;4139065;28;20285;-74
2023/03/23 03:22:14;;;;;;;2.90;1.20;;;12.80;99.90;;;;;;4138529;28;20303;-74
2023/03/23 03:24:21;;;;;;;2.10;1.00;;;12.80;99.90;;;;;;4136254;28;20304;-75
2023/03/23 03:26:26;;;;;;;1.07;0.80;;;12.80;99.90;;;;;;4141865;28;20263;-74
2023/03/23 03:28:28;;;;;;;1.80;1.10;;;12.80;99.90;;;;;;4142472;28;21203;-75
2023/03/23 03:30:35;;;;;;;6.53;1.33;;;12.80;99.90;;;;;;4139770;28;20232;-74
2023/03/23 03:32:42;;;;;;;3.67;1.00;;;12.80;99.90;;;;;;4144466;28;20302;-74
2023/03/23 03:34:44;;;;;;;1.47;0.97;;;12.80;99.90;;;;;;4141175;28;20264;-75
2023/03/23 03:36:48;;;;;;;4.50;1.10;;;13.00;99.90;;;;;;4138615;28;20685;-75
2023/03/23 03:38:52;;;;;;;3.17;1.13;;;12.80;99.90;;;;;;4142467;28;20196;-74
2023/03/23 03:40:55;;;;;;;5.63;1.17;;;12.80;99.90;;;;;;4141299;28;20202;-74
2023/03/23 03:42:59;;;;;;;4.27;1.00;;;12.80;99.90;;;;;;4140565;28;20849;-75
2023/03/23 03:45:01;;;;;;;1.70;1.00;;;12.80;99.90;;;;;;4139351;28;20211;-75
2023/03/23 03:47:03;;;;;;;1.77;1.03;;;12.80;99.90;;;;;;4138252;28;20207;-74
2023/03/23 03:49:06;;;;;;;2.20;1.07;;;12.80;99.90;;;;;;4140820;28;20270;-74
2023/03/23 03:51:09;;;;;;;1.57;1.00;;;12.80;99.90;;;;;;4140087;28;20270;-74
2023/03/23 03:53:12;;;;;;;2.23;1.10;;;12.80;99.90;;;;;;4144040;28;20269;-75
2023/03/23 03:55:16;;;;;;;1.63;1.00;;;12.90;99.90;;;;;;4137805;28;20558;-74
2023/03/23 03:57:19;;;;;;;1.80;1.00;;;12.90;99.90;;;;;;4138621;28;20223;-74
2023/03/23 03:59:21;;;;;;;8.00;1.20;;;12.90;99.90;;;;;;4142132;28;20241;-74
2023/03/23 04:01:23;;;;;;;1.27;0.93;;;12.90;99.90;;;;;;4140061;28;20287;-74
2023/03/23 04:03:26;;;;;;;1.60;1.00;;;12.90;99.90;;;;;;4141344;28;20610;-74
2023/03/23 04:05:29;;;;;;;1.93;0.90;;;12.90;99.90;;;;;;4140135;28;20239;-74
2023/03/23 04:07:31;;;;;;;4.23;1.00;;;12.80;99.90;;;;;;4142045;28;20215;-75
2023/03/23 04:09:33;;;;;;;1.33;1.10;;;12.80;99.90;;;;;;4150625;28;20358;-75
2023/03/23 04:11:36;;;;;;;1.33;1.10;;;12.80;99.90;;;;;;4140542;28;20224;-74
2023/03/23 04:13:39;;;;;;;3.57;1.00;;;12.80;99.90;;;;;;4136561;28;20216;-74
2023/03/23 04:15:41;;;;;;;2.70;1.10;;;12.80;99.90;;;;;;4143851;28;20228;-75
2023/03/23 04:17:43;;;;;;;2.60;1.30;;;12.80;99.90;;;;;;4140322;28;20636;-74
2023/03/23 04:19:45;;;;;;;2.07;1.30;;;12.80;99.90;;;;;;4139422;28;20695;-75
2023/03/23 04:21:49;;;;;;;5.43;1.33;;;12.80;99.90;;;;;;4140563;28;20308;-72
2023/03/23 04:23:51;;;;;;;2.90;1.17;;;12.80;99.90;;;;;;4153645;28;20208;-75
2023/03/23 04:25:57;;;;;;;1.97;0.90;;;12.80;99.90;;;;;;4138571;28;20232;-75
2023/03/23 04:28:01;;;;;;;1.80;1.07;;;12.80;99.90;;;;;;4142424;28;20792;-74
2023/03/23 04:30:04;;;;;;;3.50;1.30;;;12.80;99.90;;;;;;4140455;28;20728;-75
2023/03/23 04:32:06;;;;;;;2.90;1.20;;;12.80;99.90;;;;;;4136341;28;20316;-75
2023/03/23 04:34:08;;;;;;;1.90;1.10;;;12.80;99.90;;;;;;4134745;28;20208;-75
2023/03/23 04:36:11;;;;;;;1.83;1.10;;;12.80;99.90;;;;;;4138639;28;20212;-75
2023/03/23 04:38:14;;;;;;;2.90;1.10;;;12.80;99.90;;;;;;4137787;28;20927;-75
2023/03/23 04:40:17;;;;;;;2.77;1.20;;;12.80;99.90;;;;;;4139349;28;20289;-74
2023/03/23 04:42:21;;;;;;;4.77;2.33;;;12.80;99.90;;;;;;4139786;28;20316;-74
2023/03/23 04:44:24;;;;;;;6.00;2.77;;;12.90;99.90;;;;;;4139301;28;20629;-74
2023/03/23 04:46:28;;;;;;;3.40;1.77;;;12.80;99.90;;;;;;4139291;28;20658;-75
2023/03/23 04:48:32;;;;;;;2.23;1.30;;;12.80;99.90;;;;;;4137042;28;20725;-75
2023/03/23 04:50:36;;;;;;;3.37;1.43;;;12.80;99.90;;;;;;4154738;28;20882;-75
2023/03/23 04:52:40;;;;;;;2.83;1.17;;;12.80;99.90;;;;;;4142127;28;20278;-75
2023/03/23 04:54:42;;;;;;;2.00;1.10;;;12.80;99.90;;;;;;4139476;28;20207;-75
2023/03/23 04:56:44;;;;;;;3.57;1.10;;;12.80;99.90;;;;;;4138715;28;20252;-74
2023/03/23 04:58:46;;;;;;;2.10;1.20;;;12.80;99.90;;;;;;4141954;28;20662;-74
2023/03/23 05:00:50;;;;;;;2.50;1.00;;;12.80;99.90;;;;;;4141182;28;20562;-75
2023/03/23 05:02:52;;;;;;;2.40;1.23;;;12.80;99.90;;;;;;4143728;28;21059;-74
2023/03/23 05:04:54;;;;;;;2.97;1.20;;;12.80;99.90;;;;;;4130938;28;20219;-76
2023/03/23 05:06:56;;;;;;;4.17;1.37;;;12.80;99.90;;;;;;4139407;28;20204;-76
2023/03/23 05:08:58;;;;;;;2.23;1.20;;;12.80;99.90;;;;;;4136615;28;20312;-75
2023/03/23 05:11:01;;;;;;;3.13;1.30;;;12.70;99.90;;;;;;4138973;28;20242;-75
2023/03/23 05:13:03;;;;;;;2.47;1.40;;;12.70;99.90;;;;;;4136290;28;20311;-75
2023/03/23 05:15:08;;;;;;;2.53;1.27;;;12.70;99.90;;;;;;4149583;28;20203;-76
2023/03/23 05:17:12;;;;;;;3.33;1.17;;;12.70;99.90;;;;;;4127363;28;20216;-75
2023/03/23 05:19:14;;;;;;;2.03;1.40;;;12.70;99.90;;;;;;4125481;28;20843;-75
2023/03/23 05:21:16;;;;;;;1.87;1.20;;;12.70;99.90;;;;;;4124776;28;20207;-76
2023/03/23 05:23:20;;;;;;;1.10;1.00;;;12.70;99.90;;;;;;4133063;28;20304;-75
2023/03/23 05:25:22;;;;;;;2.60;1.37;;;12.70;99.90;;;;;;4135590;28;20884;-75
2023/03/23 05:27:30;;;;;;;1.23;1.07;;;12.70;99.90;;;;;;4134267;28;20203;-75
2023/03/23 05:29:32;;;;;;;2.30;1.37;;;12.70;99.90;;;;;;4141362;28;20218;-75
2023/03/23 05:31:34;;;;;;;3.13;1.20;;;12.60;99.90;;;;;;4135430;28;20316;-75
2023/03/23 05:33:37;;;;;;;2.70;1.30;;;12.60;99.90;;;;;;4138000;28;20616;-75
2023/03/23 05:35:39;;;;;;;3.13;1.63;;;12.60;99.90;;;;;;4155236;28;20275;-75
2023/03/23 05:37:41;;;;;;;6.17;2.90;;;12.50;99.90;;;;;;4138847;28;20196;-75
2023/03/23 05:39:44;;;;;;;3.70;2.10;;;12.40;99.90;;;;;;4138730;28;20208;-75
2023/03/23 05:41:46;;;;;;;3.30;1.50;;;12.40;99.90;;;;;;4143049;28;20281;-75
2023/03/23 05:43:48;;;;;;;1.87;1.30;;;12.40;99.90;;;;;;4139394;28;20594;-75
2023/03/23 05:45:50;;;;;;;1.30;0.90;;;12.30;99.90;;;;;;4135754;28;20695;-75
2023/03/23 05:47:52;;;;;;;2.53;1.30;;;12.40;99.90;;;;;;4136663;28;20208;-75
2023/03/23 05:49:56;;;;;;;2.63;1.27;;;12.40;99.90;;;;;;4140081;28;20281;-75
2023/03/23 05:51:58;;;;;;;2.40;1.37;;;12.40;99.90;;;;;;4138567;28;20338;-75
2023/03/23 05:54:00;;;;;;;2.47;1.60;;;12.40;99.90;;;;;;4139284;28;20204;-75
2023/03/23 05:56:03;;;;;;;3.63;1.47;;;12.40;99.90;;;;;;4139333;28;20208;-75
2023/03/23 05:58:05;;;;;;;2.77;1.40;;;12.40;99.90;;;;;;4138808;28;20213;-74
2023/03/23 06:00:18;;;;;;;2.60;1.23;;;12.40;99.90;;;;;;4141495;28;20679;-75
2023/03/23 06:02:20;;;;;;;8.70;3.70;;;12.40;99.90;;;;;;4140099;28;20604;-75
2023/03/23 06:04:24;;;;;;;5.47;2.67;;;12.40;99.90;;;;;;4138925;28;20243;-76
2023/03/23 06:06:29;;;;;;;5.67;2.33;;;12.40;99.90;;;;;;4133268;28;21038;-75
2023/03/23 06:08:31;;;;;;;2.10;1.23;;;12.40;99.90;;;;;;4142390;28;20212;-75
2023/03/23 06:10:36;;;;;;;4.53;2.00;;;12.40;99.90;;;;;;4144508;28;20287;-76
2023/03/23 06:12:38;;;;;;;6.97;3.40;;;12.30;99.90;;;;;;4141109;28;20225;-76
2023/03/23 06:14:40;;;;;;;5.60;2.30;;;12.20;99.90;;;;;;4142000;28;20212;-76
2023/03/23 06:16:42;;;;;;;3.47;1.80;;;12.10;99.90;;;;;;4145299;28;20226;-76
2023/03/23 06:18:44;;;;;;;2.40;1.40;;;11.90;99.90;;;;;;4140451;28;20212;-76
2023/03/23 06:20:46;;;;;;;5.47;2.07;;;11.90;99.90;;;;;;4135934;28;20231;-76
2023/03/23 06:22:50;;;;;;;3.73;1.97;;;11.80;99.90;;;;;;4137162;28;20228;-76
2023/03/23 06:24:52;;;;;;;4.20;1.90;;;11.70;99.90;;;;;;4139692;28;20209;-76
2023/03/23 06:26:54;;;;;;;3.03;1.70;;;11.70;99.90;;;;;;4153879;28;20929;-76
2023/03/23 06:28:57;;;;;;;4.33;1.80;;;11.70;99.90;;;;;;4144276;28;20231;-76
2023/03/23 06:31:01;;;;;;;3.40;1.50;;;11.60;99.90;;;;;;4144430;28;20207;-76
2023/03/23 06:33:05;;;;;;;5.07;2.63;;;11.60;99.90;;;;;;4139461;28;20228;-76
2023/03/23 06:35:09;;;;;;;4.00;1.97;;;11.60;99.90;;;;;;4139530;28;20211;-76
2023/03/23 06:37:12;;;;;;;4.00;2.10;;;11.60;99.90;;;;;;4145959;28;20216;-75
2023/03/23 06:39:15;;;;;;;5.30;1.70;;;11.60;99.90;;;;;;4144558;28;20718;-75
2023/03/23 06:41:17;;;;;;;2.97;1.70;;;11.60;99.90;;;;;;4140226;28;20199;-75
2023/03/23 06:43:19;;;;;;;4.03;1.80;;;11.50;99.90;;;;;;4140614;28;20216;-75
2023/03/23 06:45:21;;;;;;;2.93;1.60;;;11.50;99.90;;;;;;4141768;28;20753;-76
2023/03/23 06:47:23;;;;;;;4.83;1.47;;;11.50;99.90;;;;;;4147361;28;20703;-76
2023/03/23 06:49:25;;;;;;;3.63;1.80;;;11.50;99.90;;;;;;4144515;28;20224;-76
2023/03/23 06:51:27;;;;;;;3.63;1.53;;;11.50;99.90;;;;;;4143446;28;20310;-75
2023/03/23 06:53:31;;;;;;;2.10;1.30;;;11.50;99.90;;;;;;4143337;28;20209;-75
2023/03/23 06:55:35;;;;;;;4.07;1.60;;;11.50;99.90;;;;;;4144487;28;20299;-75
2023/03/23 06:57:37;;;;;;;4.23;1.63;;;11.50;99.90;;;;;;4152037;28;20258;-74
2023/03/23 06:59:39;;;;;;;3.00;1.60;;;11.50;99.90;;;;;;4141392;28;20211;-76
2023/03/23 07:01:41;;;;;;;2.63;1.70;;;11.50;99.90;;;;;;4156576;28;20238;-76
2023/03/23 07:03:45;;;;;;;2.07;1.43;;;11.50;99.90;;;;;;4142108;28;20303;-76
2023/03/23 07:05:47;;;;;;;2.30;1.57;;;11.60;99.90;;;;;;4143156;28;20236;-76
2023/03/23 07:07:49;;;;;;;2.93;1.53;;;11.60;99.90;;;;;;4140093;28;20210;-78
2023/03/23 07:09:51;;;;;;;5.10;1.40;;;11.60;99.90;;;;;;4137661;28;20231;-76
2023/03/23 07:11:55;;;;;;;3.30;1.47;;;11.60;99.90;;;;;;4151901;28;20237;-75
2023/03/23 07:13:57;;;;;;;2.93;1.40;;;11.60;99.90;;;;;;4137100;28;20204;-76
2023/03/23 07:16:00;;;;;;;2.17;1.20;;;11.60;99.90;;;;;;4138527;28;20228;-75
2023/03/23 07:18:02;;;;;;;2.33;1.20;;;11.60;99.90;;;;;;4142065;28;20204;-76
2023/03/23 07:20:05;;;;;;;2.00;1.30;;;11.60;99.90;;;;;;4138030;28;20207;-75
2023/03/23 07:22:08;;;;;;;3.03;1.30;;;11.60;99.90;;;;;;4135696;28;20239;-75
2023/03/23 07:24:13;;;;;;;1.67;0.90;;;11.60;99.90;;;;;;4139260;28;20212;-76
2023/03/23 07:26:15;;;;;;;2.77;0.93;;;11.70;99.90;;;;;;4141075;28;20201;-76
2023/03/23 07:28:19;;;;;;;1.63;1.00;;;11.70;99.90;;;;;;4140433;28;20685;-76
2023/03/23 07:30:21;;;;;;;1.80;1.10;;;11.70;99.90;;;;;;4139993;28;20232;-75
2023/03/23 07:32:23;;;;;;;2.80;1.23;;;11.70;99.90;;;;;;4137640;28;20238;-76
2023/03/23 07:34:25;;;;;;;2.33;1.00;;;11.70;99.90;;;;;;4137505;28;20210;-76
2023/03/23 07:36:28;;;;;;;1.63;0.97;;;11.70;99.90;;;;;;4140745;28;20235;-75
2023/03/23 07:38:30;;;;;;;3.60;0.90;;;11.70;99.90;;;;;;4139936;28;20310;-76
2023/03/23 07:40:34;;;;;;;2.43;0.80;;;11.70;99.90;;;;;;4138543;28;20210;-76
2023/03/23 07:42:35;;;;;;;2.33;1.10;;;11.60;99.90;;;;;;4141990;28;20232;-76
2023/03/23 07:44:41;;;;;;;2.17;1.20;;;11.60;99.90;;;;;;4138364;28;20208;-75
2023/03/23 07:46:43;;;;;;;2.37;1.40;;;11.70;99.90;;;;;;4145681;28;20221;-73
2023/03/23 07:48:46;;;;;;;2.43;1.03;;;11.70;99.90;;;;;;4143593;28;20251;-76
2023/03/23 07:50:48;;;;;;;2.13;1.20;;;11.70;99.90;;;;;;4143358;28;20240;-74
2023/03/23 07:52:49;;;;;;;2.27;0.90;;;11.70;99.90;;;;;;4147903;28;20314;-74
2023/03/23 07:54:51;;;;;;;1.77;0.97;;;11.70;99.90;;;;;;4149229;28;20235;-75
2023/03/23 07:57:02;;;;;;;1.60;1.00;;;11.80;99.90;;;;;;4143593;28;20250;-76
2023/03/23 07:59:05;;;;;;;2.37;1.40;;;11.80;99.90;;;;;;4135135;28;20197;-74
2023/03/23 08:01:09;;;;;;;1.97;1.00;;;11.80;99.90;;;;;;4146285;28;20619;-75
2023/03/23 08:03:12;;;;;;;1.40;1.00;;;11.90;99.90;;;;;;4140885;28;20196;-74
2023/03/23 08:05:14;;;;;;;2.30;1.37;;;11.90;99.90;;;;;;4138171;28;20755;-75
2023/03/23 08:07:19;;;;;;;2.10;1.10;;;11.90;99.90;;;;;;4139056;28;20210;-76
2023/03/23 08:09:21;;;;;;;3.53;1.23;;;12.00;99.90;;;;;;4138767;28;20224;-77
2023/03/23 08:11:23;;;;;;;1.67;1.30;;;12.00;99.90;;;;;;4137717;28;20295;-77
2023/03/23 08:13:25;;;;;;;2.33;1.23;;;12.00;99.90;;;;;;4137140;28;20223;-77
2023/03/23 08:15:28;;;;;;;2.10;1.13;;;11.90;99.90;;;;;;4139677;28;20200;-76
2023/03/23 08:17:32;;;;;;;2.43;1.33;;;11.90;99.90;;;;;;4138390;28;20200;-76
2023/03/23 08:19:38;;;;;;;7.53;1.70;;;11.90;99.90;;;;;;4136616;28;20204;-76
2023/03/23 08:21:40;;;;;;;2.83;1.50;;;11.90;99.90;;;;;;4136374;28;20319;-76
2023/03/23 08:23:42;;;;;;;2.87;1.23;;;11.90;99.90;;;;;;4144049;28;20204;-75
2023/03/23 08:25:44;;;;;;;2.30;1.10;;;11.90;99.90;;;;;;4138571;28;20216;-77
2023/03/23 08:27:45;;;;;;;3.70;1.30;;;11.90;99.90;;;;;;4138774;28;20266;-75
2023/03/23 08:29:51;;;;;;;2.73;1.20;;;11.90;99.90;;;;;;4138728;28;20208;-76
2023/03/23 08:31:53;;;;;;;2.47;1.07;;;11.90;99.90;;;;;;4141426;28;20862;-76
2023/03/23 08:33:57;;;;;;;1.50;0.90;;;11.90;99.90;;;;;;4139252;28;20619;-76
2023/03/23 08:36:00;;;;;;;1.63;1.10;;;11.90;99.90;;;;;;4139647;28;20200;-75
2023/03/23 08:38:03;;;;;;;2.80;1.47;;;11.90;99.90;;;;;;4137671;28;20209;-76
2023/03/23 08:40:10;;;;;;;2.43;1.20;;;11.90;99.90;;;;;;4141086;28;20201;-77
2023/03/23 08:42:12;;;;;;;4.60;1.63;;;12.00;99.90;;;;;;4139593;28;20259;-76
2023/03/23 08:44:14;;;;;;;3.20;1.30;;;12.00;99.90;;;;;;4137305;28;20208;-75
2023/03/23 08:46:16;;;;;;;2.33;1.40;;;12.10;99.90;;;;;;4153555;28;20204;-76
2023/03/23 08:48:18;;;;;;;3.43;1.30;;;12.10;99.90;;;;;;4152259;28;20315;-76
2023/03/23 08:50:24;;;;;;;3.60;1.50;;;12.20;99.90;;;;;;4137033;28;20224;-75
2023/03/23 08:52:26;;;;;;;2.33;1.50;;;12.30;99.90;;;;;;4135934;28;20230;-76
2023/03/23 08:54:29;;;;;;;2.73;1.50;;;12.40;99.90;;;;;;4138517;28;20290;-76
2023/03/23 08:56:31;;;;;;;3.47;1.53;;;12.50;99.90;;;;;;4137784;28;20585;-76
2023/03/23 08:58:33;;;;;;;3.20;1.90;;;12.50;99.90;;;;;;4137981;28;20204;-77
2023/03/23 09:00:35;;;;;;;3.10;1.50;;;12.60;99.90;;;;;;4136147;28;20208;-76
2023/03/23 09:02:37;;;;;;;4.00;1.60;;;12.70;99.90;;;;;;4136924;28;20286;-76
2023/03/23 09:04:39;;;;;;;3.30;1.50;;;12.80;99.90;;;;;;4136508;28;20324;-77
2023/03/23 09:06:42;;;;;;;2.50;1.60;;;12.90;99.90;;;;;;4137117;28;20255;-77
2023/03/23 09:08:44;;;;;;;2.93;1.50;;;13.00;99.90;;;;;;4139184;28;20209;-74
2023/03/23 09:10:49;;;;;;;3.73;1.70;;;13.10;99.90;;;;;;4135394;28;20228;-75
2023/03/23 09:12:55;;;;;;;2.83;1.53;;;13.20;99.90;;;;;;4136205;28;21099;-76
2023/03/23 09:15:03;;;;;;;2.23;1.20;;;13.30;99.90;;;;;;4138158;28;20210;-74
2023/03/23 09:17:05;;;;;;;3.47;1.47;;;13.40;99.90;;;;;;4146689;28;20280;-74
2023/03/23 09:19:08;;;;;;;3.30;1.40;;;13.50;99.90;;;;;;4140352;28;20881;-75
2023/03/23 09:21:16;;;;;;;1.77;1.30;;;13.60;99.90;;;;;;4143875;28;20216;-74
2023/03/23 09:23:20;;;;;;;2.00;1.33;;;13.70;99.90;;;;;;4141192;28;20209;-75
2023/03/23 09:25:27;;;;;;;1.87;1.17;;;13.80;99.90;;;;;;4138032;28;20206;-74
2023/03/23 09:27:29;;;;;;;2.13;1.30;;;13.80;99.90;;;;;;4145619;28;20203;-74
2023/03/23 09:29:31;;;;;;;2.60;1.30;;;13.90;99.90;;;;;;4140886;28;20235;-74
2023/03/23 09:31:33;;;;;;;3.17;1.40;;;14.00;99.90;;;;;;4139134;28;20230;-74
2023/03/23 09:33:36;;;;;;;2.17;1.17;;;14.10;99.90;;;;;;4144479;28;20246;-76
2023/03/23 09:35:38;;;;;;;4.87;1.37;;;14.20;99.90;;;;;;4139458;28;20294;-76
2023/03/23 09:37:44;;;;;;;2.13;1.40;;;14.20;99.90;;;;;;4136394;28;20231;-76
2023/03/23 09:39:49;;;;;;;2.37;1.20;;;14.20;99.90;;;;;;4136185;28;20207;-77
2023/03/23 09:42:15;;;;;;;2.57;1.20;;;14.30;99.90;;;;;;4137648;28;20230;-77
2023/03/23 09:44:25;;;;;;;3.37;1.83;;;14.40;99.90;;;;;;4136795;28;20299;-76
2023/03/23 09:46:41;;;;;;;3.83;1.60;;;14.40;99.90;;;;;;4151396;28;20227;-76
2023/03/23 09:48:51;;;;;;;2.63;1.50;;;14.50;99.90;;;;;;4137460;28;20200;-76
2023/03/23 09:51:00;;;;;;;1.50;1.17;;;14.50;99.90;;;;;;4139295;28;20216;-76
2023/03/23 09:53:06;;;;;;;1.70;1.20;;;14.60;99.90;;;;;;4139145;28;20235;-76
2023/03/23 09:55:14;;;;;;;1.63;1.20;;;14.80;99.90;;;;;;4140472;28;20211;-75
2023/03/23 09:57:23;;;;;;;2.90;1.37;;;14.80;99.90;;;;;;4135046;28;20219;-76
2023/03/23 09:59:30;;;;;;;2.73;1.17;;;14.90;99.90;;;;;;4134165;28;20208;-75
2023/03/23 10:01:36;;;;;;;1.90;1.23;;;14.90;99.90;;;;;;4136654;28;20213;-77
2023/03/23 10:03:40;;;;;;;1.73;1.30;;;15.00;99.90;;;;;;4135308;28;20243;-76
2023/03/23 10:05:45;;;;;;;3.50;1.20;;;15.00;99.90;;;;;;4151981;28;20242;-77
2023/03/23 10:07:47;;;;;;;1.93;1.20;;;15.10;99.90;;;;;;4136092;28;20209;-76
2023/03/23 10:09:52;;;;;;;3.63;1.10;;;15.10;99.90;;;;;;4133868;28;20219;-76
2023/03/23 10:12:03;;;;;;;2.33;1.37;;;15.10;99.90;;;;;;4135976;28;20219;-76
2023/03/23 10:14:22;;;;;;;2.53;1.10;;;15.20;99.90;;;;;;4151333;28;20303;-76
2023/03/23 10:16:27;;;;;;;3.17;1.33;;;15.20;99.90;;;;;;4137868;28;20216;-76
2023/03/23 10:18:37;;;;;;;1.00;0.90;;;15.30;99.90;;;;;;4151546;28;20714;-76
2023/03/23 10:20:46;;;;;;;3.13;1.27;;;15.30;99.90;;;;;;4138861;28;20212;-76
2023/03/23 10:22:53;;;;;;;1.83;1.10;;;15.40;99.90;;;;;;4135386;28;20256;-76
2023/03/23 10:25:02;;;;;;;1.57;0.80;;;15.40;99.90;;;;;;4135691;28;20214;-76
2023/03/23 10:27:18;;;;;;;1.63;1.00;;;15.50;99.90;;;;;;4136271;28;20320;-76
2023/03/23 10:29:24;;;;;;;2.67;1.00;;;15.50;99.90;;;;;;4135228;28;20394;-76
2023/03/23 10:31:33;;;;;;;1.60;1.00;;;15.50;99.90;;;;;;4137496;28;20339;-76
2023/03/23 10:33:42;;;;;;;0.93;0.80;;;15.50;99.90;;;;;;4139234;28;20204;-76
2023/03/23 10:35:48;;;;;;;2.40;0.90;;;15.60;99.90;;;;;;4137494;28;20284;-75
2023/03/23 10:37:56;;;;;;;3.63;1.10;;;15.60;99.90;;;;;;4135191;28;20216;-76
2023/03/23 10:40:01;;;;;;;1.73;0.80;;;15.70;99.90;;;;;;4137491;28;20300;-76
2023/03/23 10:42:06;;;;;;;0.90;0.80;;;15.70;99.90;;;;;;4138379;28;20762;-76
2023/03/23 10:44:17;;;;;;;1.53;0.90;;;15.70;99.90;;;;;;4135554;28;20213;-76
2023/03/23 10:46:28;;;;;;;3.17;1.10;;;15.80;99.90;;;;;;4135423;28;20210;-76
2023/03/23 10:48:32;;;;;;;2.33;0.90;;;15.80;99.90;;;;;;4151766;28;20225;-76
2023/03/23 10:50:37;;;;;;;1.60;1.20;;;15.80;99.90;;;;;;4135897;28;20651;-76